Aeroporto :
LOGIN :

Iscrizione | Disclaimer

   EN    FR    IT 

 










Sommario :    VFR   VFR Marginale   IFR   IFR Intensivo   IFR Molto Intensivo
Visibilità : 
Base nubi : 
>= 8 km
>= 3000ft
5 / 8 km
1000 / 3000 ft
1500m / 5 km
500 / 1000 ft
800 / 1500m
200 / 500 ft
< 800m
< 200 ft
Simboli :   Temporali  Nebbia  Neve Forte  Precipitazioni Forti  Vento > 20 kt
SIGMETs :   Varie  Temporali  Ghiacco  Turbolenza  Onda orograficha  Ceneri Vulcaniche






- Altitudine del aeroporto : 995 ft
- Codice IATA : KTW


EPKT - Katowice

ULTIMO METAR :
  • 281730Z 22009KT CAVOK 09/08 Q1015

METARs OBSOLETI :
  • 281700Z 22009KT CAVOK 10/08 Q1015
  • 281630Z 21011KT CAVOK 11/08 Q1014
  • 281600Z 22013KT CAVOK 11/09 Q1014
  • 281530Z 23009KT CAVOK 12/09 Q1014
  • 281500Z 21006KT CAVOK 12/10 Q1014

TAF TAF EPKT
Valido dal 28 a 18 ore il 29 a 18 ore UTC


281730Z 2818/2918 22010KT CAVOK
TEMPO 2818/2906 4000 BR
TEMPO 2909/2918 24015G25KT 4000 SHRA BKN020CB



MetMap, La meteo Aeronautica in un colpo d'occhio ! - Copyright ORBIFLY Dicembre 2007 - Disclaimer

ORBIFLY MET'MAP TEAM :

Programmazione e sviluppo : Alexandra Zaïnal
Concezione : Baudouin d'Aumeries
Aiuto per la programmazione : Marc-Olivier Méhu
Supporto tecnico e logistico : Manuel Goepfert
Aiuto per la traduzione : Arnaldo La Scala

Contatto : metmap@orbifly.com




FONTI E CREDITI :

   NOAA